SCVM 160600Z 00000KT CAVOK 15/12 Q1014